Time;durP1;ratioP1;P1;durP2;ratioP2;P2;SDS_P1;SDS_P2;PMS_P1;PMS_P2;Temp;Humidity;BMP_temperature;BMP_pressure;BME280_temperature;BME280_humidity;BME280_pressure;Samples;Min_cycle;Max_cycle;Signal;HPM_P1;HPM_P2
2023/04/27 00:01:56;;;;;;;;;;;;;;;6.26;nan;100684.41;5018218;28;19936;-83
2023/04/27 00:04:21;;;;;;;;;;;;;;;6.18;nan;100679.75;5003525;28;19921;-82
2023/04/27 00:06:46;;;;;;;;;;;;;;;6.05;nan;100679.84;5005756;28;19995;-83
2023/04/27 00:09:12;;;;;;;;;;;;;;;5.99;nan;100688.22;5021656;28;19921;-83
2023/04/27 00:11:37;;;;;;;;;;;;;;;5.92;nan;100681.75;5004454;28;19926;-84
2023/04/27 00:14:02;;;;;;;;;;;;;;;5.92;nan;100669.44;5004464;28;19921;-83
2023/04/27 00:16:27;;;;;;;;;;;;;;;5.96;nan;100683.22;5003654;28;19929;-83
2023/04/27 00:18:52;;;;;;;;;;;;;;;6.15;nan;100680.00;5006101;28;19975;-83
2023/04/27 00:21:18;;;;;;;;;;;;;;;6.17;nan;100680.69;5007107;28;19960;-83
2023/04/27 00:23:43;;;;;;;;;;;;;;;6.18;nan;100673.69;5006095;28;19933;-83
2023/04/27 00:26:08;;;;;;;;;;;;;;;6.10;nan;100667.22;5009547;28;20008;-83
2023/04/27 00:28:33;;;;;;;;;;;;;;;6.07;nan;100672.69;5010370;28;20631;-83
2023/04/27 00:31:02;;;;;;;;;;;;;;;6.04;nan;100680.00;5009202;28;19922;-83
2023/04/27 00:33:27;;;;;;;;;;;;;;;6.03;nan;100665.19;5009705;28;19926;-84
2023/04/27 00:35:52;;;;;;;;;;;;;;;6.07;nan;100677.94;5009840;28;19921;-83
2023/04/27 00:38:17;;;;;;;;;;;;;;;6.04;nan;100672.94;5007659;28;19953;-83
2023/04/27 00:40:43;;;;;;;;;;;;;;;6.03;nan;100671.28;5010885;28;19922;-82
2023/04/27 00:43:08;;;;;;;;;;;;;;;6.02;nan;100664.34;5005232;28;20395;-83
2023/04/27 00:45:38;;;;;;;;;;;;;;;5.96;nan;100667.47;5010064;28;19921;-82
2023/04/27 00:48:04;;;;;;;;;;;;;;;5.87;nan;100666.34;5007647;28;20384;-83
2023/04/27 00:50:29;;;;;;;;;;;;;;;5.84;nan;100660.47;5005223;28;19922;-82
2023/04/27 00:52:55;;;;;;;;;;;;;;;5.80;nan;100659.06;5022208;28;19929;-84
2023/04/27 00:55:21;;;;;;;;;;;;;;;5.81;nan;100663.34;5009089;28;20324;-83
2023/04/27 00:57:46;;;;;;;;;;;;;;;5.87;nan;100660.28;5008588;28;19925;-83
2023/04/27 01:00:12;;;;;;;;;;;;;;;5.92;nan;100669.44;5007983;28;20015;-83
2023/04/27 01:02:37;;;;;;;;;;;;;;;5.91;nan;100664.31;5007502;28;20137;-84
2023/04/27 01:05:02;;;;;;;;;;;;;;;5.89;nan;100671.50;5007967;28;19925;-83
2023/04/27 01:07:28;;;;;;;;;;;;;;;5.91;nan;100673.03;5007558;28;19930;-83
2023/04/27 01:09:53;;;;;;;;;;;;;;;5.97;nan;100670.91;5007464;28;19992;-83
2023/04/27 01:12:18;;;;;;;;;;;;;;;5.95;nan;100676.28;5006108;28;20456;-81
2023/04/27 01:14:43;;;;;;;;;;;;;;;6.00;nan;100676.75;5023970;28;19975;-83
2023/04/27 01:17:08;;;;;;;;;;;;;;;6.07;nan;100682.38;5008588;28;20301;-81
2023/04/27 01:19:34;;;;;;;;;;;;;;;6.08;nan;100673.56;5007598;28;20293;-83
2023/04/27 01:22:00;;;;;;;;;;;;;;;6.09;nan;100683.91;5008117;28;20434;-82
2023/04/27 01:24:25;;;;;;;;;;;;;;;6.08;nan;100684.88;5006508;28;19926;-82
2023/04/27 01:26:52;;;;;;;;;;;;;;;6.02;nan;100674.84;5007304;28;19953;-83
2023/04/27 01:29:17;;;;;;;;;;;;;;;6.03;nan;100678.31;5006926;28;20379;-83
2023/04/27 01:31:43;;;;;;;;;;;;;;;6.02;nan;100663.53;5008113;28;20060;-81
2023/04/27 01:34:08;;;;;;;;;;;;;;;6.02;nan;100674.03;5007203;28;19926;-83
2023/04/27 01:36:34;;;;;;;;;;;;;;;6.01;nan;100675.81;5008050;28;20193;-82
2023/04/27 01:38:59;;;;;;;;;;;;;;;6.00;nan;100676.75;5008219;28;19948;-82
2023/04/27 01:41:25;;;;;;;;;;;;;;;5.97;nan;100668.28;5021219;28;20009;-83
2023/04/27 01:43:50;;;;;;;;;;;;;;;5.97;nan;100673.53;5002921;28;19972;-83
2023/04/27 01:46:15;;;;;;;;;;;;;;;5.98;nan;100681.28;5006859;28;19927;-83
2023/04/27 01:48:40;;;;;;;;;;;;;;;5.99;nan;100675.09;5020937;28;19926;-82
2023/04/27 01:51:06;;;;;;;;;;;;;;;5.97;nan;100681.41;5006745;28;19921;-81
2023/04/27 01:53:31;;;;;;;;;;;;;;;5.94;nan;100682.50;5007170;28;20186;-83
2023/04/27 01:55:58;;;;;;;;;;;;;;;5.91;nan;100678.28;5006065;28;19922;-82
2023/04/27 01:58:23;;;;;;;;;;;;;;;5.90;nan;100673.97;5006120;28;19976;-84
2023/04/27 02:00:49;;;;;;;;;;;;;;;5.92;nan;100674.69;5006257;28;20380;-82
2023/04/27 02:03:14;;;;;;;;;;;;;;;5.95;nan;100676.28;5006322;28;19964;-83
2023/04/27 02:05:40;;;;;;;;;;;;;;;5.93;nan;100680.78;5005239;28;20273;-83
2023/04/27 02:08:05;;;;;;;;;;;;;;;5.97;nan;100684.03;5005801;28;19922;-82
2023/04/27 02:10:31;;;;;;;;;;;;;;;6.00;nan;100682.00;5005838;28;19928;-84
2023/04/27 02:12:56;;;;;;;;;;;;;;;6.00;nan;100682.00;5005940;28;19922;-83
2023/04/27 02:15:21;;;;;;;;;;;;;;;5.99;nan;100682.97;5006109;28;20040;-83
2023/04/27 02:17:47;;;;;;;;;;;;;;;5.97;nan;100682.25;4999535;28;20107;-81
2023/04/27 02:20:12;;;;;;;;;;;;;;;6.00;nan;100683.81;5006303;28;20017;-83
2023/04/27 02:22:43;;;;;;;;;;;;;;;6.10;nan;100683.00;5004240;28;20282;-83
2023/04/27 02:25:10;;;;;;;;;;;;;;;6.08;nan;100679.63;5004526;28;19952;-83
2023/04/27 02:27:38;;;;;;;;;;;;;;;6.01;nan;100686.31;5006382;28;19927;-83
2023/04/27 02:30:04;;;;;;;;;;;;;;;5.89;nan;100688.06;5006425;28;19949;-82
2023/04/27 02:32:30;;;;;;;;;;;;;;;5.79;nan;100683.63;5021857;28;19926;-82
2023/04/27 02:34:55;;;;;;;;;;;;;;;5.68;nan;100690.53;5020990;28;19922;-82
2023/04/27 02:37:20;;;;;;;;;;;;;;;5.62;nan;100690.97;5006445;28;19922;-83
2023/04/27 02:39:46;;;;;;;;;;;;;;;5.61;nan;100693.75;5005488;28;19991;-83
2023/04/27 02:42:11;;;;;;;;;;;;;;;5.58;nan;100699.19;5021297;28;19929;-83
2023/04/27 02:44:36;;;;;;;;;;;;;;;5.58;nan;100697.44;4999692;28;19922;-82
2023/04/27 02:47:01;;;;;;;;;;;;;;;5.64;nan;100699.56;5005641;28;19937;-83
2023/04/27 02:49:27;;;;;;;;;;;;;;;5.71;nan;100697.31;5007539;28;19932;-82
2023/04/27 02:51:52;;;;;;;;;;;;;;;5.75;nan;100701.41;5005379;28;20000;-82
2023/04/27 02:54:17;;;;;;;;;;;;;;;5.81;nan;100695.66;5005150;28;19929;-83
2023/04/27 02:56:42;;;;;;;;;;;;;;;5.87;nan;100705.72;5005462;28;19924;-82
2023/04/27 02:59:08;;;;;;;;;;;;;;;5.81;nan;100698.28;5005810;28;20385;-83
2023/04/27 03:01:33;;;;;;;;;;;;;;;5.81;nan;100700.09;5006398;28;19921;-82
2023/04/27 03:03:58;;;;;;;;;;;;;;;5.87;nan;100697.84;5006108;28;20008;-83
2023/04/27 03:06:23;;;;;;;;;;;;;;;5.92;nan;100700.13;5006069;28;20305;-82
2023/04/27 03:08:48;;;;;;;;;;;;;;;5.85;nan;100694.50;5019013;28;19922;-82
2023/04/27 03:11:13;;;;;;;;;;;;;;;5.85;nan;100699.75;5003634;28;19921;-82
2023/04/27 03:13:42;;;;;;;;;;;;;;;5.92;nan;100702.75;5006800;28;19929;-83
2023/04/27 03:16:08;;;;;;;;;;;;;;;5.92;nan;100698.31;5006997;28;19967;-83
2023/04/27 03:18:33;;;;;;;;;;;;;;;5.95;nan;100695.47;5020868;28;20348;-82
2023/04/27 03:21:05;;;;;;;;;;;;;;;6.00;nan;100694.31;5000845;28;19968;-82
2023/04/27 03:23:30;;;;;;;;;;;;;;;6.00;nan;100699.53;5005289;28;20190;-82
2023/04/27 03:25:55;;;;;;;;;;;;;;;6.01;nan;100698.63;5005428;28;20134;-83
2023/04/27 03:28:20;;;;;;;;;;;;;;;6.02;nan;100697.66;5002065;28;20233;-82
2023/04/27 03:30:46;;;;;;;;;;;;;;;6.03;nan;100694.91;5004929;28;19925;-82
2023/04/27 03:33:11;;;;;;;;;;;;;;;5.94;nan;100685.13;5005136;28;19925;-82
2023/04/27 03:35:36;;;;;;;;;;;;;;;5.97;nan;100687.50;5004862;28;19932;-82
2023/04/27 03:38:01;;;;;;;;;;;;;;;6.00;nan;100694.31;5006708;28;19921;-82
2023/04/27 03:40:26;;;;;;;;;;;;;;;6.01;nan;100688.94;5004936;28;20328;-83
2023/04/27 03:42:51;;;;;;;;;;;;;;;6.04;nan;100683.44;5004135;28;19962;-82
2023/04/27 03:45:18;;;;;;;;;;;;;;;6.10;nan;100688.22;5001743;28;19925;-83
2023/04/27 03:47:43;;;;;;;;;;;;;;;6.11;nan;100692.53;5006256;28;20102;-84
2023/04/27 03:50:08;;;;;;;;;;;;;;;6.12;nan;100680.22;5016082;28;19926;-83
2023/04/27 03:52:33;;;;;;;;;;;;;;;6.18;nan;100679.75;5002960;28;19925;-84
2023/04/27 03:54:59;;;;;;;;;;;;;;;6.29;nan;100684.16;5022009;28;19932;-84
2023/04/27 03:57:24;;;;;;;;;;;;;;;6.36;nan;100680.94;5005435;28;19922;-82
2023/04/27 03:59:50;;;;;;;;;;;;;;;6.41;nan;100684.97;5008039;28;19930;-83
2023/04/27 04:02:16;;;;;;;;;;;;;;;6.44;nan;100675.09;5010158;28;19925;-85
2023/04/27 04:04:41;;;;;;;;;;;;;;;6.57;nan;100685.44;5010062;28;20036;-83
2023/04/27 04:07:06;;;;;;;;;;;;;;;6.56;nan;100682.00;5008377;28;19921;-85
2023/04/27 04:09:31;;;;;;;;;;;;;;;6.60;nan;100690.44;5011093;28;20377;-84
2023/04/27 04:11:56;;;;;;;;;;;;;;;6.63;nan;100692.03;5007460;28;19972;-84
2023/04/27 04:14:22;;;;;;;;;;;;;;;6.69;nan;100689.72;5007849;28;20079;-84
2023/04/27 04:16:47;;;;;;;;;;;;;;;6.66;nan;100695.22;5007253;28;20040;-83
2023/04/27 04:19:12;;;;;;;;;;;;;;;6.66;nan;100691.78;5007199;28;19921;-85
2023/04/27 04:21:37;;;;;;;;;;;;;;;6.66;nan;100697.03;5007888;28;20440;-84
2023/04/27 04:24:03;;;;;;;;;;;;;;;6.65;nan;100693.56;5006865;28;19956;-84
2023/04/27 04:26:29;;;;;;;;;;;;;;;6.63;nan;100694.66;5002861;28;19930;-84
2023/04/27 04:28:54;;;;;;;;;;;;;;;6.68;nan;100697.75;5005444;28;20072;-85
2023/04/27 04:31:20;;;;;;;;;;;;;;;6.68;nan;100701.19;5008491;28;19984;-84
2023/04/27 04:33:45;;;;;;;;;;;;;;;6.69;nan;100694.97;5004143;28;19922;-83
2023/04/27 04:36:10;;;;;;;;;;;;;;;6.67;nan;100698.69;5017491;28;20016;-84
2023/04/27 04:38:36;;;;;;;;;;;;;;;6.72;nan;100694.75;5008538;28;20192;-84
2023/04/27 04:41:01;;;;;;;;;;;;;;;6.76;nan;100704.03;5004755;28;19922;-84
2023/04/27 04:43:27;;;;;;;;;;;;;;;6.78;nan;100698.66;5007972;28;19932;-84
2023/04/27 04:45:52;;;;;;;;;;;;;;;6.79;nan;100701.19;5009652;28;20004;-84
2023/04/27 04:48:18;;;;;;;;;;;;;;;6.79;nan;100700.31;5007802;28;19929;-83
2023/04/27 04:50:43;;;;;;;;;;;;;;;6.82;nan;100700.09;5008998;28;19921;-84
2023/04/27 04:53:09;;;;;;;;;;;;;;;6.90;nan;100699.47;5007877;28;19929;-84
2023/04/27 04:55:34;;;;;;;;;;;;;;;6.96;nan;100693.69;5008532;28;19928;-84
2023/04/27 04:57:59;;;;;;;;;;;;;;;6.97;nan;100700.66;5007054;28;19931;-84
2023/04/27 05:00:25;;;;;;;;;;;;;;;7.06;nan;100696.44;5008349;28;20407;-85
2023/04/27 05:02:50;;;;;;;;;;;;;;;7.05;nan;100695.59;5008498;28;19944;-85
2023/04/27 05:05:15;;;;;;;;;;;;;;;7.11;nan;100694.28;5007447;28;19921;-84
2023/04/27 05:07:41;;;;;;;;;;;;;;;7.10;nan;100693.41;5009256;28;20282;-85
2023/04/27 05:10:06;;;;;;;;;;;;;;;7.17;nan;100699.84;5002123;28;19975;-84
2023/04/27 05:12:31;;;;;;;;;;;;;;;7.26;nan;100703.53;5018491;28;19925;-84
2023/04/27 05:14:56;;;;;;;;;;;;;;;7.32;nan;100704.84;5024321;28;20401;-85
2023/04/27 05:17:21;;;;;;;;;;;;;;;7.40;nan;100703.22;5007771;28;19929;-83
2023/04/27 05:19:47;;;;;;;;;;;;;;;7.47;nan;100708.81;5023975;28;19928;-84
2023/04/27 05:22:12;;;;;;;;;;;;;;;7.56;nan;100713.31;5006555;28;20016;-85
2023/04/27 05:24:37;;;;;;;;;;;;;;;7.61;nan;100707.69;5021355;28;19952;-84
2023/04/27 05:27:02;;;;;;;;;;;;;;;7.68;nan;100714.09;5003934;28;19921;-84
2023/04/27 05:29:27;;;;;;;;;;;;;;;7.76;nan;100716.09;5023284;28;19930;-85
2023/04/27 05:31:53;;;;;;;;;;;;;;;7.84;nan;100721.53;5008412;28;19921;-84
2023/04/27 05:34:18;;;;;;;;;;;;;;;7.91;nan;100721.84;5007751;28;19922;-86
2023/04/27 05:36:43;;;;;;;;;;;;;;;7.96;nan;100723.16;5021455;28;20381;-83
2023/04/27 05:39:09;;;;;;;;;;;;;;;8.04;nan;100735.66;5028530;28;19925;-83
2023/04/27 05:41:34;;;;;;;;;;;;;;;8.15;nan;100732.09;5010765;28;19921;-83
2023/04/27 05:43:59;;;;;;;;;;;;;;;8.26;nan;100737.28;5002436;28;20020;-85
2023/04/27 05:46:25;;;;;;;;;;;;;;;8.36;nan;100738.16;5005886;28;19930;-84
2023/04/27 05:48:50;;;;;;;;;;;;;;;8.44;nan;100740.19;5019582;28;19921;-84
2023/04/27 05:51:15;;;;;;;;;;;;;;;8.41;nan;100740.44;5008418;28;19928;-84
2023/04/27 05:53:41;;;;;;;;;;;;;;;8.40;nan;100742.22;5003497;28;19937;-84
2023/04/27 05:56:06;;;;;;;;;;;;;;;8.52;nan;100726.34;5003300;28;19917;-84
2023/04/27 05:58:32;;;;;;;;;;;;;;;8.58;nan;100737.19;5006367;28;19999;-84
2023/04/27 06:00:57;;;;;;;;;;;;;;;8.84;nan;100742.81;5007400;28;19922;-84
2023/04/27 06:03:22;;;;;;;;;;;;;;;8.98;nan;100741.56;5005995;28;20016;-86
2023/04/27 06:05:52;;;;;;;;;;;;;;;9.12;nan;100751.72;5008338;28;19941;-84
2023/04/27 06:08:18;;;;;;;;;;;;;;;9.28;nan;100751.19;5000632;28;19928;-83
2023/04/27 06:10:43;;;;;;;;;;;;;;;9.37;nan;100752.19;5005881;28;19925;-84
2023/04/27 06:13:08;;;;;;;;;;;;;;;9.31;nan;100758.00;5006509;28;20363;-84
2023/04/27 06:15:33;;;;;;;;;;;;;;;9.10;nan;100760.75;5022740;28;19932;-84
2023/04/27 06:17:58;;;;;;;;;;;;;;;8.87;nan;100760.16;5007637;28;19949;-85
2023/04/27 06:20:23;;;;;;;;;;;;;;;8.79;nan;100758.16;5006897;28;19929;-84
2023/04/27 06:22:49;;;;;;;;;;;;;;;8.88;nan;100767.91;5007303;28;20417;-84
2023/04/27 06:25:14;;;;;;;;;;;;;;;8.97;nan;100773.38;5005786;28;20377;-84
2023/04/27 06:27:39;;;;;;;;;;;;;;;8.92;nan;100774.59;5007375;28;20016;-85
2023/04/27 06:30:05;;;;;;;;;;;;;;;8.97;nan;100783.91;5007789;28;19926;-84
2023/04/27 06:32:30;;;;;;;;;;;;;;;9.00;nan;100784.47;5006627;28;19968;-84
2023/04/27 06:34:55;;;;;;;;;;;;;;;9.07;nan;100788.22;5007243;28;20459;-84
2023/04/27 06:37:21;;;;;;;;;;;;;;;9.18;nan;100791.75;5005731;28;20405;-84
2023/04/27 06:39:46;;;;;;;;;;;;;;;9.36;nan;100804.09;5021543;28;20274;-86
2023/04/27 06:42:11;;;;;;;;;;;;;;;9.28;nan;100792.59;5007196;28;19926;-86
2023/04/27 06:44:37;;;;;;;;;;;;;;;9.18;nan;100791.75;5004412;28;19933;-86
2023/04/27 06:47:02;;;;;;;;;;;;;;;9.31;nan;100794.94;5007955;28;20362;-86
2023/04/27 06:49:27;;;;;;;;;;;;;;;9.49;nan;100795.94;5006402;28;20016;-86
2023/04/27 06:51:52;;;;;;;;;;;;;;;9.60;nan;100800.22;5005705;28;20002;-86
2023/04/27 06:54:21;;;;;;;;;;;;;;;9.65;nan;100802.47;5003509;28;20392;-86
2023/04/27 06:56:46;;;;;;;;;;;;;;;9.62;nan;100802.75;5021763;28;20309;-86
2023/04/27 06:59:11;;;;;;;;;;;;;;;9.36;nan;100801.47;5007745;28;19922;-85
2023/04/27 07:01:37;;;;;;;;;;;;;;;9.44;nan;100798.16;5007312;28;19948;-87
2023/04/27 07:04:05;;;;;;;;;;;;;;;9.54;nan;100801.63;5006395;28;19975;-86
2023/04/27 07:06:31;;;;;;;;;;;;;;;9.68;nan;100799.56;5005822;28;19928;-87
2023/04/27 07:08:57;;;;;;;;;;;;;;;9.92;nan;100804.41;5006482;28;20020;-87
2023/04/27 07:11:22;;;;;;;;;;;;;;;10.04;nan;100798.00;5006153;28;19925;-87
2023/04/27 07:13:47;;;;;;;;;;;;;;;10.33;nan;100808.53;5005525;28;20351;-87
2023/04/27 07:16:13;;;;;;;;;;;;;;;10.68;nan;100807.03;5003170;28;19921;-86
2023/04/27 07:18:39;;;;;;;;;;;;;;;10.99;nan;100799.66;5003192;28;19929;-86
2023/04/27 07:21:04;;;;;;;;;;;;;;;11.40;nan;100801.91;4996541;28;19948;-86
2023/04/27 07:23:30;;;;;;;;;;;;;;;11.84;nan;100804.59;5016546;28;19926;-87
2023/04/27 07:25:56;;;;;;;;;;;;;;;12.12;nan;100802.69;5003105;28;19922;-87
2023/04/27 07:28:21;;;;;;;;;;;;;;;12.42;nan;100797.91;5005313;28;19991;-88
2023/04/27 07:30:46;;;;;;;;;;;;;;;13.03;nan;100809.31;5002380;28;19925;-87
2023/04/27 07:33:12;;;;;;;;;;;;;;;13.66;nan;100808.81;5013997;28;19927;-87
2023/04/27 07:35:37;;;;;;;;;;;;;;;13.97;nan;100805.50;5000194;28;19930;-88
2023/04/27 07:38:02;;;;;;;;;;;;;;;14.26;nan;100810.28;5024330;28;19921;-88
2023/04/27 07:40:28;;;;;;;;;;;;;;;14.44;nan;100805.59;5007414;28;19949;-87
2023/04/27 07:42:54;;;;;;;;;;;;;;;14.56;nan;100805.25;5004002;28;19979;-87
2023/04/27 07:45:19;;;;;;;;;;;;;;;14.67;nan;100802.22;5003932;28;20385;-88
2023/04/27 07:47:45;;;;;;;;;;;;;;;14.99;nan;100806.59;4991614;28;19937;-88
2023/04/27 07:50:11;;;;;;;;;;;;;;;15.00;nan;100804.75;5005995;28;19921;-87
2023/04/27 07:52:36;;;;;;;;;;;;;;;15.28;nan;100805.09;5009680;28;19976;-88
2023/04/27 07:55:02;;;;;;;;;;;;;;;15.24;nan;100801.13;5009727;28;19980;-88
2023/04/27 07:57:28;;;;;;;;;;;;;;;15.61;nan;100794.19;5026213;28;20055;-88
2023/04/27 07:59:53;;;;;;;;;;;;;;;16.03;nan;100788.38;5011039;28;19921;-85
2023/04/27 08:02:18;;;;;;;;;;;;;;;16.47;nan;100787.63;5009174;28;19949;-87
2023/04/27 08:04:43;;;;;;;;;;;;;;;17.01;nan;100783.81;5010411;28;20319;-87
2023/04/27 08:07:08;;;;;;;;;;;;;;;17.41;nan;100787.72;5011336;28;19928;-87
2023/04/27 08:09:34;;;;;;;;;;;;;;;18.22;nan;100778.56;5009915;28;20209;-88
2023/04/27 08:11:59;;;;;;;;;;;;;;;18.58;nan;100783.72;5010620;28;19948;-89
2023/04/27 08:14:24;;;;;;;;;;;;;;;18.70;nan;100783.16;5010610;28;21523;-89
2023/04/27 08:16:50;;;;;;;;;;;;;;;19.25;nan;100784.81;5003992;28;19921;-88
2023/04/27 08:19:16;;;;;;;;;;;;;;;19.89;nan;100764.69;5009606;28;20452;-88
2023/04/27 08:21:41;;;;;;;;;;;;;;;20.10;nan;100777.06;5010764;28;20020;-88
2023/04/27 08:24:07;;;;;;;;;;;;;;;20.30;nan;100768.97;5010555;28;19921;-88
2023/04/27 08:26:32;;;;;;;;;;;;;;;20.49;nan;100774.53;5010713;28;19922;-85
2023/04/27 08:28:58;;;;;;;;;;;;;;;20.41;nan;100772.06;5008329;28;19925;-88
2023/04/27 08:31:24;;;;;;;;;;;;;;;21.02;nan;100771.66;5010188;28;20258;-88
2023/04/27 08:33:50;;;;;;;;;;;;;;;20.77;nan;100760.81;5009693;28;19921;-88
2023/04/27 08:36:15;;;;;;;;;;;;;;;20.88;nan;100762.00;5008894;28;20381;-89
2023/04/27 08:38:40;;;;;;;;;;;;;;;21.62;nan;100753.31;5010496;28;19953;-88
2023/04/27 08:41:05;;;;;;;;;;;;;;;21.93;nan;100745.34;5009154;28;20154;-89
2023/04/27 08:43:36;;;;;;;;;;;;;;;22.05;nan;100741.72;5007328;28;19925;-87
2023/04/27 08:46:02;;;;;;;;;;;;;;;21.74;nan;100737.25;5004564;28;19987;-85
2023/04/27 08:48:27;;;;;;;;;;;;;;;21.85;nan;100744.59;5007881;28;19921;-89
2023/04/27 08:50:54;;;;;;;;;;;;;;;22.08;nan;100748.53;5007117;28;19932;-86
2023/04/27 08:53:21;;;;;;;;;;;;;;;22.87;nan;100754.91;5008617;28;20071;-86
2023/04/27 08:55:46;;;;;;;;;;;;;;;22.79;nan;100757.94;5007644;28;19922;-86
2023/04/27 08:58:11;;;;;;;;;;;;;;;22.76;nan;100749.47;5005412;28;19921;-85
2023/04/27 09:00:40;;;;;;;;;;;;;;;22.94;nan;100754.00;5019186;28;19921;-87
2023/04/27 09:03:07;;;;;;;;;;;;;;;23.17;nan;100756.84;5006265;28;20283;-87
2023/04/27 09:05:32;;;;;;;;;;;;;;;22.34;nan;100755.56;5007082;28;20308;-86
2023/04/27 09:08:04;;;;;;;;;;;;;;;22.55;nan;100762.38;5009255;28;19930;-86
2023/04/27 09:10:29;;;;;;;;;;;;;;;23.46;nan;100751.63;5003512;28;19932;-87
2023/04/27 09:12:55;;;;;;;;;;;;;;;23.93;nan;100763.34;5003700;28;19926;-88
2023/04/27 09:15:21;;;;;;;;;;;;;;;24.25;nan;100762.97;5010479;28;20035;-86
2023/04/27 09:17:51;;;;;;;;;;;;;;;24.12;nan;100760.50;4999454;28;19965;-87
2023/04/27 09:20:17;;;;;;;;;;;;;;;24.82;nan;100759.59;4997740;28;19925;-87
2023/04/27 09:22:46;;;;;;;;;;;;;;;25.42;nan;100763.69;5001101;28;19937;-88
2023/04/27 09:25:22;;;;;;;;;;;;;;;26.14;nan;100760.22;5005627;28;19929;-88
2023/04/27 09:27:47;;;;;;;;;;;;;;;25.91;nan;100747.72;5007432;28;20032;-87
2023/04/27 09:30:13;;;;;;;;;;;;;;;26.44;nan;100757.09;5006660;28;20020;-87
2023/04/27 09:32:38;;;;;;;;;;;;;;;25.78;nan;100750.72;5006297;28;20008;-88
2023/04/27 09:35:15;;;;;;;;;;;;;;;25.63;nan;100752.13;5002030;28;20017;-87
2023/04/27 09:37:40;;;;;;;;;;;;;;;25.79;nan;100747.78;5004285;28;19921;-86
2023/04/27 09:40:06;;;;;;;;;;;;;;;26.01;nan;100749.75;5006529;28;19922;-86
2023/04/27 09:42:31;;;;;;;;;;;;;;;26.82;nan;100744.56;5005091;28;19971;-87
2023/04/27 09:44:58;;;;;;;;;;;;;;;26.84;nan;100742.44;5002227;28;19925;-87
2023/04/27 09:47:23;;;;;;;;;;;;;;;27.70;nan;100749.75;5006578;28;19972;-87
2023/04/27 09:49:49;;;;;;;;;;;;;;;28.11;nan;100741.06;5002618;28;19969;-87
2023/04/27 09:52:15;;;;;;;;;;;;;;;28.79;nan;100735.66;5000427;28;19928;-87
2023/04/27 09:54:41;;;;;;;;;;;;;;;29.33;nan;100734.41;5004127;28;19922;-87
2023/04/27 09:57:16;;;;;;;;;;;;;;;29.42;nan;100733.59;5005731;28;20265;-87
2023/04/27 09:59:57;;;;;;;;;;;;;;;29.52;nan;100732.75;5005719;28;19963;-87
2023/04/27 10:02:23;;;;;;;;;;;;;;;29.24;nan;100734.13;5009818;28;20189;-87
2023/04/27 10:05:01;;;;;;;;;;;;;;;29.61;nan;100731.13;5006040;28;19932;-87
2023/04/27 10:07:27;;;;;;;;;;;;;;;29.47;nan;100730.03;5006223;28;19983;-87
2023/04/27 10:09:52;;;;;;;;;;;;;;;29.08;nan;100722.41;5005447;28;19929;-87
2023/04/27 10:12:21;;;;;;;;;;;;;;;28.59;nan;100726.34;5006945;28;19933;-88
2023/04/27 10:14:51;;;;;;;;;;;;;;;27.72;nan;100733.16;5007255;28;20359;-87
2023/04/27 10:17:16;;;;;;;;;;;;;;;27.11;nan;100730.75;5007463;28;20180;-87
2023/04/27 10:19:52;;;;;;;;;;;;;;;27.61;nan;100731.47;5008190;28;19921;-87
2023/04/27 10:22:17;;;;;;;;;;;;;;;28.13;nan;100722.59;5006026;28;20024;-88
2023/04/27 10:24:47;;;;;;;;;;;;;;;28.57;nan;100722.25;5006341;28;20032;-86
2023/04/27 10:27:15;;;;;;;;;;;;;;;28.43;nan;100718.38;5022739;28;19944;-87
2023/04/27 10:29:41;;;;;;;;;;;;;;;28.53;nan;100723.88;5005694;28;19921;-87
2023/04/27 10:32:07;;;;;;;;;;;;;;;28.95;nan;100722.91;5004750;28;19971;-87
2023/04/27 10:34:35;;;;;;;;;;;;;;;28.95;nan;100728.34;5002185;28;19985;-86
2023/04/27 10:37:08;;;;;;;;;;;;;;;29.12;nan;100722.66;4997866;28;19929;-86
2023/04/27 10:39:35;;;;;;;;;;;;;;;29.17;nan;100725.41;5002752;28;19925;-87
2023/04/27 10:42:02;;;;;;;;;;;;;;;29.57;nan;100727.31;5000702;28;20738;-87
2023/04/27 10:44:29;;;;;;;;;;;;;;;29.89;nan;100715.31;4998167;28;19949;-87
2023/04/27 10:46:55;;;;;;;;;;;;;;;29.90;nan;100716.13;5002468;28;19929;-87
2023/04/27 10:49:21;;;;;;;;;;;;;;;30.47;nan;100715.66;4999339;28;19921;-87
2023/04/27 10:51:47;;;;;;;;;;;;;;;30.74;nan;100710.88;4999751;28;19936;-87
2023/04/27 10:54:12;;;;;;;;;;;;;;;30.85;nan;100713.28;5002712;28;19998;-86
2023/04/27 10:56:38;;;;;;;;;;;;;;;30.96;nan;100708.56;5005364;28;19968;-86
2023/04/27 10:59:04;;;;;;;;;;;;;;;30.81;nan;100711.38;4999552;28;19929;-86
2023/04/27 11:01:29;;;;;;;;;;;;;;;29.97;nan;100708.47;5002635;28;19963;-86
2023/04/27 11:03:56;;;;;;;;;;;;;;;29.45;nan;100706.88;4997560;28;19926;-86
2023/04/27 11:06:21;;;;;;;;;;;;;;;29.58;nan;100689.97;4995960;28;20210;-86
2023/04/27 11:08:46;;;;;;;;;;;;;;;28.90;nan;100698.38;5004208;28;19928;-86
2023/04/27 11:11:16;;;;;;;;;;;;;;;29.34;nan;100695.16;5015269;28;20376;-86
2023/04/27 11:13:42;;;;;;;;;;;;;;;29.78;nan;100700.88;5000873;28;19936;-86
2023/04/27 11:16:07;;;;;;;;;;;;;;;28.69;nan;100694.81;5003471;28;19934;-86
2023/04/27 11:18:35;;;;;;;;;;;;;;;28.50;nan;100698.00;5017149;28;19925;-86
2023/04/27 11:21:08;;;;;;;;;;;;;;;28.35;nan;100698.75;5001281;28;19968;-86
2023/04/27 11:23:36;;;;;;;;;;;;;;;28.95;nan;100688.31;5019121;28;19925;-86
2023/04/27 11:26:31;;;;;;;;;;;;;;;28.44;nan;100690.91;5004931;28;19973;-85
2023/04/27 11:28:59;;;;;;;;;;;;;;;28.98;nan;100692.41;4981819;28;20316;-86
2023/04/27 11:31:25;;;;;;;;;;;;;;;29.86;nan;100685.84;5004325;28;19921;-86
2023/04/27 11:33:51;;;;;;;;;;;;;;;31.13;nan;100685.50;5001687;28;20042;-86
2023/04/27 11:36:20;;;;;;;;;;;;;;;31.83;nan;100688.69;5002057;28;19918;-86
2023/04/27 11:38:45;;;;;;;;;;;;;;;31.62;nan;100687.28;5003718;28;20044;-86
2023/04/27 11:41:10;;;;;;;;;;;;;;;30.73;nan;100698.34;5008367;28;20376;-86
2023/04/27 11:43:40;;;;;;;;;;;;;;;30.18;nan;100680.03;5001852;28;20032;-86
2023/04/27 11:46:07;;;;;;;;;;;;;;;30.86;nan;100684.06;5002652;28;20449;-87
2023/04/27 11:48:35;;;;;;;;;;;;;;;30.56;nan;100676.84;5003195;28;19926;-86
2023/04/27 11:51:01;;;;;;;;;;;;;;;30.47;nan;100677.47;5006606;28;19921;-85
2023/04/27 11:53:33;;;;;;;;;;;;;;;30.14;nan;100669.97;5006189;28;19968;-86
2023/04/27 11:55:59;;;;;;;;;;;;;;;29.95;nan;100673.28;5005409;28;20563;-84
2023/04/27 11:58:26;;;;;;;;;;;;;;;29.07;nan;100662.78;5003536;28;19917;-86
2023/04/27 12:00:51;;;;;;;;;;;;;;;28.02;nan;100663.81;5016708;28;19932;-86
2023/04/27 12:03:16;;;;;;;;;;;;;;;28.25;nan;100665.28;5000882;28;20377;-85
2023/04/27 12:05:49;;;;;;;;;;;;;;;28.38;nan;100662.03;5002274;28;19929;-85
2023/04/27 12:08:15;;;;;;;;;;;;;;;27.87;nan;100659.13;5013196;28;20344;-86
2023/04/27 12:10:40;;;;;;;;;;;;;;;27.95;nan;100655.88;5003723;28;19925;-84
2023/04/27 12:13:06;;;;;;;;;;;;;;;26.47;nan;100641.88;5006480;28;19953;-85
2023/04/27 12:15:31;;;;;;;;;;;;;;;25.64;nan;100644.59;5005028;28;19925;-84
2023/04/27 12:17:56;;;;;;;;;;;;;;;25.27;nan;100645.16;5004345;28;19929;-84
2023/04/27 12:20:21;;;;;;;;;;;;;;;24.97;nan;100642.72;5005953;28;19933;-85
2023/04/27 12:22:47;;;;;;;;;;;;;;;24.82;nan;100632.47;5007662;28;19952;-84
2023/04/27 12:25:12;;;;;;;;;;;;;;;24.90;nan;100631.22;5006566;28;19987;-85
2023/04/27 12:27:37;;;;;;;;;;;;;;;24.15;nan;100625.78;5006007;28;20016;-84
2023/04/27 12:30:03;;;;;;;;;;;;;;;23.89;nan;100626.31;5008765;28;19921;-85
2023/04/27 12:32:28;;;;;;;;;;;;;;;24.28;nan;100621.16;5008985;28;20312;-84
2023/04/27 12:34:54;;;;;;;;;;;;;;;23.12;nan;100616.44;5009063;28;19929;-84
2023/04/27 12:37:20;;;;;;;;;;;;;;;22.94;nan;100617.28;5008451;28;20309;-84
2023/04/27 12:39:45;;;;;;;;;;;;;;;22.80;nan;100616.66;5007600;28;19976;-83
2023/04/27 12:42:11;;;;;;;;;;;;;;;22.86;nan;100617.66;5005396;28;19929;-83
2023/04/27 12:44:36;;;;;;;;;;;;;;;23.08;nan;100613.38;5005385;28;19930;-83
2023/04/27 12:47:02;;;;;;;;;;;;;;;23.13;nan;100606.47;5007536;28;19928;-82
2023/04/27 12:49:27;;;;;;;;;;;;;;;22.92;nan;100614.00;4997131;28;19929;-84
2023/04/27 12:51:53;;;;;;;;;;;;;;;22.85;nan;100610.59;5006993;28;19922;-84
2023/04/27 12:54:18;;;;;;;;;;;;;;;22.87;nan;100613.88;5004210;28;20025;-84
2023/04/27 12:56:43;;;;;;;;;;;;;;;22.86;nan;100615.75;5004498;28;19983;-84